sensor_id;sensor_type;location;lat;lon;timestamp;temperature;humidity
9975;DHT22;5028;50.974;4.968;2023-05-29T00:00:05;14.30;99.90
9975;DHT22;5028;50.974;4.968;2023-05-29T00:02:35;14.20;99.90
9975;DHT22;5028;50.974;4.968;2023-05-29T00:05:04;14.20;99.90
9975;DHT22;5028;50.974;4.968;2023-05-29T00:07:33;14.10;99.90
9975;DHT22;5028;50.974;4.968;2023-05-29T00:10:02;14.10;99.90
9975;DHT22;5028;50.974;4.968;2023-05-29T00:12:30;14.10;99.90
9975;DHT22;5028;50.974;4.968;2023-05-29T00:15:01;14.00;99.90
9975;DHT22;5028;50.974;4.968;2023-05-29T00:17:31;14.00;99.90
9975;DHT22;5028;50.974;4.968;2023-05-29T00:20:01;13.90;99.90
9975;DHT22;5028;50.974;4.968;2023-05-29T00:22:30;13.90;99.90
9975;DHT22;5028;50.974;4.968;2023-05-29T00:24:59;13.80;99.90
9975;DHT22;5028;50.974;4.968;2023-05-29T00:27:27;13.80;99.90
9975;DHT22;5028;50.974;4.968;2023-05-29T00:29:56;13.70;99.90
9975;DHT22;5028;50.974;4.968;2023-05-29T00:32:26;13.70;99.90
9975;DHT22;5028;50.974;4.968;2023-05-29T00:34:56;13.70;99.90
9975;DHT22;5028;50.974;4.968;2023-05-29T00:37:24;13.70;99.90
9975;DHT22;5028;50.974;4.968;2023-05-29T00:39:53;13.60;99.90
9975;DHT22;5028;50.974;4.968;2023-05-29T00:42:22;13.50;99.90
9975;DHT22;5028;50.974;4.968;2023-05-29T00:44:50;13.50;99.90
9975;DHT22;5028;50.974;4.968;2023-05-29T00:47:19;13.50;99.90
9975;DHT22;5028;50.974;4.968;2023-05-29T00:49:50;13.40;99.90
9975;DHT22;5028;50.974;4.968;2023-05-29T00:52:20;13.40;99.90
9975;DHT22;5028;50.974;4.968;2023-05-29T00:54:49;13.30;99.90
9975;DHT22;5028;50.974;4.968;2023-05-29T00:57:18;13.30;99.90
9975;DHT22;5028;50.974;4.968;2023-05-29T00:59:47;13.30;99.90
9975;DHT22;5028;50.974;4.968;2023-05-29T01:02:16;13.20;99.90
9975;DHT22;5028;50.974;4.968;2023-05-29T01:04:45;13.20;99.90
9975;DHT22;5028;50.974;4.968;2023-05-29T01:07:15;13.10;99.90
9975;DHT22;5028;50.974;4.968;2023-05-29T01:09:44;13.10;99.90
9975;DHT22;5028;50.974;4.968;2023-05-29T01:12:19;13.00;99.90
9975;DHT22;5028;50.974;4.968;2023-05-29T01:15:01;13.00;99.90
9975;DHT22;5028;50.974;4.968;2023-05-29T01:17:39;12.90;99.90
9975;DHT22;5028;50.974;4.968;2023-05-29T01:20:19;12.90;99.90
9975;DHT22;5028;50.974;4.968;2023-05-29T01:23:07;12.80;99.90
9975;DHT22;5028;50.974;4.968;2023-05-29T01:25:56;12.70;99.90
9975;DHT22;5028;50.974;4.968;2023-05-29T01:28:33;12.60;99.90
9975;DHT22;5028;50.974;4.968;2023-05-29T01:31:04;12.60;99.90
9975;DHT22;5028;50.974;4.968;2023-05-29T01:33:33;12.60;99.90
9975;DHT22;5028;50.974;4.968;2023-05-29T01:36:02;12.50;99.90
9975;DHT22;5028;50.974;4.968;2023-05-29T01:38:31;12.50;99.90
9975;DHT22;5028;50.974;4.968;2023-05-29T01:41:00;12.40;99.90
9975;DHT22;5028;50.974;4.968;2023-05-29T01:43:31;12.40;99.90
9975;DHT22;5028;50.974;4.968;2023-05-29T01:46:00;12.30;99.90
9975;DHT22;5028;50.974;4.968;2023-05-29T01:48:29;12.20;99.90
9975;DHT22;5028;50.974;4.968;2023-05-29T01:50:59;12.20;99.90
9975;DHT22;5028;50.974;4.968;2023-05-29T01:53:27;12.10;99.90
9975;DHT22;5028;50.974;4.968;2023-05-29T01:55:56;12.10;99.90
9975;DHT22;5028;50.974;4.968;2023-05-29T01:58:25;12.10;99.90
9975;DHT22;5028;50.974;4.968;2023-05-29T02:00:57;12.10;99.90
9975;DHT22;5028;50.974;4.968;2023-05-29T02:03:28;12.00;99.90
9975;DHT22;5028;50.974;4.968;2023-05-29T02:05:57;12.00;99.90
9975;DHT22;5028;50.974;4.968;2023-05-29T02:08:27;12.00;99.90
9975;DHT22;5028;50.974;4.968;2023-05-29T02:10:56;11.90;99.90
9975;DHT22;5028;50.974;4.968;2023-05-29T02:13:24;11.90;99.90
9975;DHT22;5028;50.974;4.968;2023-05-29T02:15:56;11.90;99.90
9975;DHT22;5028;50.974;4.968;2023-05-29T02:18:25;11.90;99.90
9975;DHT22;5028;50.974;4.968;2023-05-29T02:20:54;11.80;99.90
9975;DHT22;5028;50.974;4.968;2023-05-29T02:23:23;11.80;99.90
9975;DHT22;5028;50.974;4.968;2023-05-29T02:25:52;11.70;99.90
9975;DHT22;5028;50.974;4.968;2023-05-29T02:28:20;11.70;99.90
9975;DHT22;5028;50.974;4.968;2023-05-29T02:30:50;11.70;99.90
9975;DHT22;5028;50.974;4.968;2023-05-29T02:33:21;11.60;99.90
9975;DHT22;5028;50.974;4.968;2023-05-29T02:35:50;11.60;99.90
9975;DHT22;5028;50.974;4.968;2023-05-29T02:38:19;11.60;99.90
9975;DHT22;5028;50.974;4.968;2023-05-29T02:40:48;11.50;99.90
9975;DHT22;5028;50.974;4.968;2023-05-29T02:43:16;11.50;99.90
9975;DHT22;5028;50.974;4.968;2023-05-29T02:45:45;11.50;99.90
9975;DHT22;5028;50.974;4.968;2023-05-29T02:48:14;11.40;99.90
9975;DHT22;5028;50.974;4.968;2023-05-29T02:50:44;11.40;99.90
9975;DHT22;5028;50.974;4.968;2023-05-29T02:53:13;11.40;99.90
9975;DHT22;5028;50.974;4.968;2023-05-29T02:55:41;11.30;99.90
9975;DHT22;5028;50.974;4.968;2023-05-29T02:58:10;11.30;99.90
9975;DHT22;5028;50.974;4.968;2023-05-29T03:00:39;11.30;99.90
9975;DHT22;5028;50.974;4.968;2023-05-29T03:03:08;11.20;99.90
9975;DHT22;5028;50.974;4.968;2023-05-29T03:05:37;11.20;99.90
9975;DHT22;5028;50.974;4.968;2023-05-29T03:08:07;11.20;99.90
9975;DHT22;5028;50.974;4.968;2023-05-29T03:10:36;11.20;99.90
9975;DHT22;5028;50.974;4.968;2023-05-29T03:13:05;11.20;99.90
9975;DHT22;5028;50.974;4.968;2023-05-29T03:15:33;11.20;99.90
9975;DHT22;5028;50.974;4.968;2023-05-29T03:18:02;11.10;99.90
9975;DHT22;5028;50.974;4.968;2023-05-29T03:20:32;11.10;99.90
9975;DHT22;5028;50.974;4.968;2023-05-29T03:23:00;11.10;99.90
9975;DHT22;5028;50.974;4.968;2023-05-29T03:25:31;11.10;99.90
9975;DHT22;5028;50.974;4.968;2023-05-29T03:27:59;11.00;99.90
9975;DHT22;5028;50.974;4.968;2023-05-29T03:30:28;11.00;99.90
9975;DHT22;5028;50.974;4.968;2023-05-29T03:32:57;11.00;99.90
9975;DHT22;5028;50.974;4.968;2023-05-29T03:35:30;11.00;99.90
9975;DHT22;5028;50.974;4.968;2023-05-29T03:38:00;11.00;99.90
9975;DHT22;5028;50.974;4.968;2023-05-29T03:40:30;10.90;99.90
9975;DHT22;5028;50.974;4.968;2023-05-29T03:42:58;10.90;99.90
9975;DHT22;5028;50.974;4.968;2023-05-29T03:45:30;10.90;99.90
9975;DHT22;5028;50.974;4.968;2023-05-29T03:47:58;10.90;99.90
9975;DHT22;5028;50.974;4.968;2023-05-29T03:50:27;10.90;99.90
9975;DHT22;5028;50.974;4.968;2023-05-29T03:52:56;10.80;99.90
9975;DHT22;5028;50.974;4.968;2023-05-29T03:55:26;10.80;99.90
9975;DHT22;5028;50.974;4.968;2023-05-29T03:57:56;10.80;99.90
9975;DHT22;5028;50.974;4.968;2023-05-29T04:00:25;10.70;99.90
9975;DHT22;5028;50.974;4.968;2023-05-29T04:02:55;10.70;99.90
9975;DHT22;5028;50.974;4.968;2023-05-29T04:05:24;10.70;99.90
9975;DHT22;5028;50.974;4.968;2023-05-29T04:07:53;10.70;99.90
9975;DHT22;5028;50.974;4.968;2023-05-29T04:10:40;10.70;99.90
9975;DHT22;5028;50.974;4.968;2023-05-29T04:13:12;10.70;99.90
9975;DHT22;5028;50.974;4.968;2023-05-29T04:15:41;10.70;99.90
9975;DHT22;5028;50.974;4.968;2023-05-29T04:18:10;10.70;99.90
9975;DHT22;5028;50.974;4.968;2023-05-29T04:20:38;10.70;99.90
9975;DHT22;5028;50.974;4.968;2023-05-29T04:23:07;10.70;99.90
9975;DHT22;5028;50.974;4.968;2023-05-29T04:25:36;10.70;99.90
9975;DHT22;5028;50.974;4.968;2023-05-29T04:28:05;10.70;99.90
9975;DHT22;5028;50.974;4.968;2023-05-29T04:30:35;10.70;99.90
9975;DHT22;5028;50.974;4.968;2023-05-29T04:33:06;10.70;99.90
9975;DHT22;5028;50.974;4.968;2023-05-29T04:35:36;10.70;99.90
9975;DHT22;5028;50.974;4.968;2023-05-29T04:38:05;10.70;99.90
9975;DHT22;5028;50.974;4.968;2023-05-29T04:40:34;10.70;99.90
9975;DHT22;5028;50.974;4.968;2023-05-29T04:43:03;10.70;99.90
9975;DHT22;5028;50.974;4.968;2023-05-29T04:45:33;10.70;99.90
9975;DHT22;5028;50.974;4.968;2023-05-29T04:48:05;10.80;99.90
9975;DHT22;5028;50.974;4.968;2023-05-29T04:50:35;10.80;99.90
9975;DHT22;5028;50.974;4.968;2023-05-29T04:53:05;10.80;99.90
9975;DHT22;5028;50.974;4.968;2023-05-29T04:55:34;10.80;99.90
9975;DHT22;5028;50.974;4.968;2023-05-29T04:58:03;10.70;99.90
9975;DHT22;5028;50.974;4.968;2023-05-29T05:00:32;10.80;99.90
9975;DHT22;5028;50.974;4.968;2023-05-29T05:03:00;10.80;99.90
9975;DHT22;5028;50.974;4.968;2023-05-29T05:05:31;10.80;99.90
9975;DHT22;5028;50.974;4.968;2023-05-29T05:08:00;10.80;99.90
9975;DHT22;5028;50.974;4.968;2023-05-29T05:10:29;10.90;99.90
9975;DHT22;5028;50.974;4.968;2023-05-29T05:12:57;10.90;99.90
9975;DHT22;5028;50.974;4.968;2023-05-29T05:15:26;11.00;99.90
9975;DHT22;5028;50.974;4.968;2023-05-29T05:17:55;11.00;99.90
9975;DHT22;5028;50.974;4.968;2023-05-29T05:20:26;11.10;99.90
9975;DHT22;5028;50.974;4.968;2023-05-29T05:22:56;11.10;99.90
9975;DHT22;5028;50.974;4.968;2023-05-29T05:25:26;11.20;99.90
9975;DHT22;5028;50.974;4.968;2023-05-29T05:27:55;11.20;99.90
9975;DHT22;5028;50.974;4.968;2023-05-29T05:30:24;11.20;99.90
9975;DHT22;5028;50.974;4.968;2023-05-29T05:32:52;11.30;99.90
9975;DHT22;5028;50.974;4.968;2023-05-29T05:35:22;11.30;99.90
9975;DHT22;5028;50.974;4.968;2023-05-29T05:37:51;11.30;99.90
9975;DHT22;5028;50.974;4.968;2023-05-29T05:40:21;11.30;99.90
9975;DHT22;5028;50.974;4.968;2023-05-29T05:42:50;11.40;99.90
9975;DHT22;5028;50.974;4.968;2023-05-29T05:45:19;11.50;99.90
9975;DHT22;5028;50.974;4.968;2023-05-29T05:47:47;11.60;99.90
9975;DHT22;5028;50.974;4.968;2023-05-29T05:50:16;11.60;99.90
9975;DHT22;5028;50.974;4.968;2023-05-29T05:52:45;11.70;99.90
9975;DHT22;5028;50.974;4.968;2023-05-29T05:55:14;11.70;99.90
9975;DHT22;5028;50.974;4.968;2023-05-29T05:57:44;11.80;99.90
9975;DHT22;5028;50.974;4.968;2023-05-29T06:00:14;11.90;99.90
9975;DHT22;5028;50.974;4.968;2023-05-29T06:02:43;11.90;99.90
9975;DHT22;5028;50.974;4.968;2023-05-29T06:05:12;12.10;99.90
9975;DHT22;5028;50.974;4.968;2023-05-29T06:07:41;12.30;99.90
9975;DHT22;5028;50.974;4.968;2023-05-29T06:10:10;12.30;99.90
9975;DHT22;5028;50.974;4.968;2023-05-29T06:12:40;12.30;99.90
9975;DHT22;5028;50.974;4.968;2023-05-29T06:15:11;12.40;99.90
9975;DHT22;5028;50.974;4.968;2023-05-29T06:17:39;12.40;99.90
9975;DHT22;5028;50.974;4.968;2023-05-29T06:20:09;12.40;99.90
9975;DHT22;5028;50.974;4.968;2023-05-29T06:22:39;12.60;99.90
9975;DHT22;5028;50.974;4.968;2023-05-29T06:25:08;12.70;99.90
9975;DHT22;5028;50.974;4.968;2023-05-29T06:27:37;12.70;99.90
9975;DHT22;5028;50.974;4.968;2023-05-29T06:30:11;12.70;99.90
9975;DHT22;5028;50.974;4.968;2023-05-29T06:32:40;12.90;99.90
9975;DHT22;5028;50.974;4.968;2023-05-29T06:35:09;12.80;99.90
9975;DHT22;5028;50.974;4.968;2023-05-29T06:37:37;12.90;99.90
9975;DHT22;5028;50.974;4.968;2023-05-29T06:40:07;12.90;99.90
9975;DHT22;5028;50.974;4.968;2023-05-29T06:42:37;13.00;99.90
9975;DHT22;5028;50.974;4.968;2023-05-29T06:45:10;13.00;99.90
9975;DHT22;5028;50.974;4.968;2023-05-29T06:47:40;13.00;99.90
9975;DHT22;5028;50.974;4.968;2023-05-29T06:50:10;12.80;99.90
9975;DHT22;5028;50.974;4.968;2023-05-29T06:52:39;12.80;99.90
9975;DHT22;5028;50.974;4.968;2023-05-29T06:55:08;12.80;99.90
9975;DHT22;5028;50.974;4.968;2023-05-29T06:57:36;12.90;99.90
9975;DHT22;5028;50.974;4.968;2023-05-29T07:00:06;13.00;99.90
9975;DHT22;5028;50.974;4.968;2023-05-29T07:02:37;13.10;99.90
9975;DHT22;5028;50.974;4.968;2023-05-29T07:05:07;13.10;99.90
9975;DHT22;5028;50.974;4.968;2023-05-29T07:07:36;13.10;99.90
9975;DHT22;5028;50.974;4.968;2023-05-29T07:10:09;13.20;99.90
9975;DHT22;5028;50.974;4.968;2023-05-29T07:12:38;13.20;99.90
9975;DHT22;5028;50.974;4.968;2023-05-29T07:15:07;13.10;99.90
9975;DHT22;5028;50.974;4.968;2023-05-29T07:17:39;13.30;99.90
9975;DHT22;5028;50.974;4.968;2023-05-29T07:20:08;13.30;99.90
9975;DHT22;5028;50.974;4.968;2023-05-29T07:22:38;13.40;99.90
9975;DHT22;5028;50.974;4.968;2023-05-29T07:25:07;13.50;99.90
9975;DHT22;5028;50.974;4.968;2023-05-29T07:27:37;13.60;99.90
9975;DHT22;5028;50.974;4.968;2023-05-29T07:30:07;13.60;99.90
9975;DHT22;5028;50.974;4.968;2023-05-29T07:32:35;13.70;99.90
9975;DHT22;5028;50.974;4.968;2023-05-29T07:35:07;13.80;99.90
9975;DHT22;5028;50.974;4.968;2023-05-29T07:37:36;14.00;99.90
9975;DHT22;5028;50.974;4.968;2023-05-29T07:40:05;14.00;99.90
9975;DHT22;5028;50.974;4.968;2023-05-29T07:42:34;14.00;99.90
9975;DHT22;5028;50.974;4.968;2023-05-29T07:45:04;14.10;99.90
9975;DHT22;5028;50.974;4.968;2023-05-29T07:47:33;14.10;99.90
9975;DHT22;5028;50.974;4.968;2023-05-29T07:50:07;14.30;99.90
9975;DHT22;5028;50.974;4.968;2023-05-29T07:52:36;14.30;99.90
9975;DHT22;5028;50.974;4.968;2023-05-29T07:55:05;14.40;99.90
9975;DHT22;5028;50.974;4.968;2023-05-29T07:57:34;14.40;99.90
9975;DHT22;5028;50.974;4.968;2023-05-29T08:00:04;14.40;99.90
9975;DHT22;5028;50.974;4.968;2023-05-29T08:02:36;14.40;99.90
9975;DHT22;5028;50.974;4.968;2023-05-29T08:05:07;14.50;99.90
9975;DHT22;5028;50.974;4.968;2023-05-29T08:07:37;14.50;99.90
9975;DHT22;5028;50.974;4.968;2023-05-29T08:10:06;14.50;99.90
9975;DHT22;5028;50.974;4.968;2023-05-29T08:12:35;14.70;99.90
9975;DHT22;5028;50.974;4.968;2023-05-29T08:15:05;14.80;99.90
9975;DHT22;5028;50.974;4.968;2023-05-29T08:17:35;14.70;99.90
9975;DHT22;5028;50.974;4.968;2023-05-29T08:20:04;14.80;99.90
9975;DHT22;5028;50.974;4.968;2023-05-29T08:22:37;14.80;99.90
9975;DHT22;5028;50.974;4.968;2023-05-29T08:25:06;15.00;99.90
9975;DHT22;5028;50.974;4.968;2023-05-29T08:27:35;15.20;99.90
9975;DHT22;5028;50.974;4.968;2023-05-29T08:30:04;15.40;99.90
9975;DHT22;5028;50.974;4.968;2023-05-29T08:32:33;15.40;99.90
9975;DHT22;5028;50.974;4.968;2023-05-29T08:35:02;15.50;99.90
9975;DHT22;5028;50.974;4.968;2023-05-29T08:37:32;15.50;99.90
9975;DHT22;5028;50.974;4.968;2023-05-29T08:40:02;15.70;99.90
9975;DHT22;5028;50.974;4.968;2023-05-29T08:42:44;15.80;99.90
9975;DHT22;5028;50.974;4.968;2023-05-29T08:45:14;16.00;99.90
9975;DHT22;5028;50.974;4.968;2023-05-29T08:47:43;16.10;99.90
9975;DHT22;5028;50.974;4.968;2023-05-29T08:50:13;16.20;99.90
9975;DHT22;5028;50.974;4.968;2023-05-29T08:52:44;16.20;99.90
9975;DHT22;5028;50.974;4.968;2023-05-29T08:55:14;16.30;99.90
9975;DHT22;5028;50.974;4.968;2023-05-29T08:57:43;16.40;99.90
9975;DHT22;5028;50.974;4.968;2023-05-29T09:00:13;16.50;99.90
9975;DHT22;5028;50.974;4.968;2023-05-29T09:02:45;16.60;99.90
9975;DHT22;5028;50.974;4.968;2023-05-29T09:05:15;16.60;99.90
9975;DHT22;5028;50.974;4.968;2023-05-29T09:07:43;16.50;99.90
9975;DHT22;5028;50.974;4.968;2023-05-29T09:10:15;16.60;99.90
9975;DHT22;5028;50.974;4.968;2023-05-29T09:12:44;16.70;99.90
9975;DHT22;5028;50.974;4.968;2023-05-29T09:15:17;16.70;99.90
9975;DHT22;5028;50.974;4.968;2023-05-29T09:17:50;16.70;99.90
9975;DHT22;5028;50.974;4.968;2023-05-29T09:20:21;16.80;99.90
9975;DHT22;5028;50.974;4.968;2023-05-29T09:22:54;16.80;99.90
9975;DHT22;5028;50.974;4.968;2023-05-29T09:25:26;16.80;99.90
9975;DHT22;5028;50.974;4.968;2023-05-29T09:27:58;16.90;99.90
9975;DHT22;5028;50.974;4.968;2023-05-29T09:30:35;17.00;99.90
9975;DHT22;5028;50.974;4.968;2023-05-29T09:33:04;17.20;99.90
9975;DHT22;5028;50.974;4.968;2023-05-29T09:35:35;17.30;99.90
9975;DHT22;5028;50.974;4.968;2023-05-29T09:38:04;17.20;99.90
9975;DHT22;5028;50.974;4.968;2023-05-29T09:40:37;17.40;99.90
9975;DHT22;5028;50.974;4.968;2023-05-29T09:43:09;17.50;99.90
9975;DHT22;5028;50.974;4.968;2023-05-29T09:45:38;17.70;99.90
9975;DHT22;5028;50.974;4.968;2023-05-29T09:48:08;17.80;99.90
9975;DHT22;5028;50.974;4.968;2023-05-29T09:50:43;17.40;99.90
9975;DHT22;5028;50.974;4.968;2023-05-29T09:53:18;17.30;99.90
9975;DHT22;5028;50.974;4.968;2023-05-29T09:55:51;17.40;99.90
9975;DHT22;5028;50.974;4.968;2023-05-29T09:58:22;17.50;99.90
9975;DHT22;5028;50.974;4.968;2023-05-29T10:00:52;17.60;99.90
9975;DHT22;5028;50.974;4.968;2023-05-29T10:03:21;17.70;99.90
9975;DHT22;5028;50.974;4.968;2023-05-29T10:05:54;17.80;99.90
9975;DHT22;5028;50.974;4.968;2023-05-29T10:08:26;18.00;99.90
9975;DHT22;5028;50.974;4.968;2023-05-29T10:11:00;18.10;99.90
9975;DHT22;5028;50.974;4.968;2023-05-29T10:13:34;18.10;99.90
9975;DHT22;5028;50.974;4.968;2023-05-29T10:16:05;18.10;99.90
9975;DHT22;5028;50.974;4.968;2023-05-29T10:18:38;18.00;99.90
9975;DHT22;5028;50.974;4.968;2023-05-29T10:21:08;18.00;99.90
9975;DHT22;5028;50.974;4.968;2023-05-29T10:23:45;18.30;99.90
9975;DHT22;5028;50.974;4.968;2023-05-29T10:26:20;18.50;99.90
9975;DHT22;5028;50.974;4.968;2023-05-29T10:28:55;18.70;99.90
9975;DHT22;5028;50.974;4.968;2023-05-29T10:31:30;18.60;99.90
9975;DHT22;5028;50.974;4.968;2023-05-29T10:34:08;18.50;99.90
9975;DHT22;5028;50.974;4.968;2023-05-29T10:36:44;18.50;99.90
9975;DHT22;5028;50.974;4.968;2023-05-29T10:39:13;18.50;99.90
9975;DHT22;5028;50.974;4.968;2023-05-29T10:41:43;18.40;99.90
9975;DHT22;5028;50.974;4.968;2023-05-29T10:44:39;18.60;99.90
9975;DHT22;5028;50.974;4.968;2023-05-29T10:47:09;18.50;99.90
9975;DHT22;5028;50.974;4.968;2023-05-29T10:49:39;18.70;99.90
9975;DHT22;5028;50.974;4.968;2023-05-29T10:52:18;19.10;99.90
9975;DHT22;5028;50.974;4.968;2023-05-29T10:54:52;19.00;99.90
9975;DHT22;5028;50.974;4.968;2023-05-29T10:57:23;19.10;99.90
9975;DHT22;5028;50.974;4.968;2023-05-29T11:00:03;19.20;99.90
9975;DHT22;5028;50.974;4.968;2023-05-29T11:02:37;19.20;99.90
9975;DHT22;5028;50.974;4.968;2023-05-29T11:05:22;18.80;99.90
9975;DHT22;5028;50.974;4.968;2023-05-29T11:07:53;19.00;99.90
9975;DHT22;5028;50.974;4.968;2023-05-29T11:10:42;19.00;99.90
9975;DHT22;5028;50.974;4.968;2023-05-29T11:13:23;19.30;99.90
9975;DHT22;5028;50.974;4.968;2023-05-29T11:16:12;19.40;99.90
9975;DHT22;5028;50.974;4.968;2023-05-29T11:18:42;19.60;99.90
9975;DHT22;5028;50.974;4.968;2023-05-29T11:21:22;19.40;99.90
9975;DHT22;5028;50.974;4.968;2023-05-29T11:23:52;19.30;99.90
9975;DHT22;5028;50.974;4.968;2023-05-29T11:26:22;19.60;99.90
9975;DHT22;5028;50.974;4.968;2023-05-29T11:28:57;19.60;99.90
9975;DHT22;5028;50.974;4.968;2023-05-29T11:31:32;19.80;99.90
9975;DHT22;5028;50.974;4.968;2023-05-29T11:34:03;19.70;99.90
9975;DHT22;5028;50.974;4.968;2023-05-29T11:36:33;20.10;99.90
9975;DHT22;5028;50.974;4.968;2023-05-29T11:39:02;20.00;99.90
9975;DHT22;5028;50.974;4.968;2023-05-29T11:41:31;19.70;99.90
9975;DHT22;5028;50.974;4.968;2023-05-29T11:44:03;19.70;99.90
9975;DHT22;5028;50.974;4.968;2023-05-29T11:46:33;19.70;99.90
9975;DHT22;5028;50.974;4.968;2023-05-29T11:49:02;19.90;99.90
9975;DHT22;5028;50.974;4.968;2023-05-29T11:51:30;20.10;99.90
9975;DHT22;5028;50.974;4.968;2023-05-29T11:53:59;20.30;99.90
9975;DHT22;5028;50.974;4.968;2023-05-29T11:56:29;20.40;99.90
9975;DHT22;5028;50.974;4.968;2023-05-29T11:58:59;20.40;99.90
9975;DHT22;5028;50.974;4.968;2023-05-29T12:01:34;20.10;99.90
9975;DHT22;5028;50.974;4.968;2023-05-29T12:04:13;19.90;99.90
9975;DHT22;5028;50.974;4.968;2023-05-29T12:06:42;20.00;99.90
9975;DHT22;5028;50.974;4.968;2023-05-29T12:09:23;20.20;99.90
9975;DHT22;5028;50.974;4.968;2023-05-29T12:11:54;20.30;99.90
9975;DHT22;5028;50.974;4.968;2023-05-29T12:14:23;20.10;99.90
9975;DHT22;5028;50.974;4.968;2023-05-29T12:16:53;20.30;99.90
9975;DHT22;5028;50.974;4.968;2023-05-29T12:19:22;20.40;99.90
9975;DHT22;5028;50.974;4.968;2023-05-29T12:21:51;20.50;99.90
9975;DHT22;5028;50.974;4.968;2023-05-29T12:24:20;20.30;99.90
9975;DHT22;5028;50.974;4.968;2023-05-29T12:26:58;20.50;99.90
9975;DHT22;5028;50.974;4.968;2023-05-29T12:29:31;20.30;99.90
9975;DHT22;5028;50.974;4.968;2023-05-29T12:32:03;20.10;99.90
9975;DHT22;5028;50.974;4.968;2023-05-29T12:34:34;20.00;99.90
9975;DHT22;5028;50.974;4.968;2023-05-29T12:37:06;20.20;99.90
9975;DHT22;5028;50.974;4.968;2023-05-29T12:39:39;20.30;99.90
9975;DHT22;5028;50.974;4.968;2023-05-29T12:42:08;20.30;99.90
9975;DHT22;5028;50.974;4.968;2023-05-29T12:44:37;20.20;99.90
9975;DHT22;5028;50.974;4.968;2023-05-29T12:47:08;20.10;99.90
9975;DHT22;5028;50.974;4.968;2023-05-29T12:49:38;20.10;99.90
9975;DHT22;5028;50.974;4.968;2023-05-29T12:52:08;20.20;99.90
9975;DHT22;5028;50.974;4.968;2023-05-29T12:54:38;20.40;99.90
9975;DHT22;5028;50.974;4.968;2023-05-29T12:57:07;20.70;99.90
9975;DHT22;5028;50.974;4.968;2023-05-29T12:59:36;20.50;99.90
9975;DHT22;5028;50.974;4.968;2023-05-29T13:02:06;20.50;99.90
9975;DHT22;5028;50.974;4.968;2023-05-29T13:04:36;20.60;99.90
9975;DHT22;5028;50.974;4.968;2023-05-29T13:07:05;20.60;99.90
9975;DHT22;5028;50.974;4.968;2023-05-29T13:09:34;20.70;99.90
9975;DHT22;5028;50.974;4.968;2023-05-29T13:12:04;20.60;99.90
9975;DHT22;5028;50.974;4.968;2023-05-29T13:14:33;20.80;99.90
9975;DHT22;5028;50.974;4.968;2023-05-29T13:17:02;20.60;99.90
9975;DHT22;5028;50.974;4.968;2023-05-29T13:19:31;20.80;99.90
9975;DHT22;5028;50.974;4.968;2023-05-29T13:22:01;20.80;99.90
9975;DHT22;5028;50.974;4.968;2023-05-29T13:24:30;20.50;99.90
9975;DHT22;5028;50.974;4.968;2023-05-29T13:26:58;20.60;99.90
9975;DHT22;5028;50.974;4.968;2023-05-29T13:29:27;20.80;99.90
9975;DHT22;5028;50.974;4.968;2023-05-29T13:31:56;20.80;99.90
9975;DHT22;5028;50.974;4.968;2023-05-29T13:34:25;21.00;99.90
9975;DHT22;5028;50.974;4.968;2023-05-29T13:36:56;20.90;99.90
9975;DHT22;5028;50.974;4.968;2023-05-29T13:39:26;21.00;99.90
9975;DHT22;5028;50.974;4.968;2023-05-29T13:41:54;20.80;99.90
9975;DHT22;5028;50.974;4.968;2023-05-29T13:44:23;20.80;99.90
9975;DHT22;5028;50.974;4.968;2023-05-29T13:46:52;20.80;99.90
9975;DHT22;5028;50.974;4.968;2023-05-29T13:49:20;21.00;99.90
9975;DHT22;5028;50.974;4.968;2023-05-29T13:51:49;21.20;99.90
9975;DHT22;5028;50.974;4.968;2023-05-29T13:54:18;20.90;99.90
9975;DHT22;5028;50.974;4.968;2023-05-29T13:56:48;21.10;99.90
9975;DHT22;5028;50.974;4.968;2023-05-29T13:59:17;21.00;99.90
9975;DHT22;5028;50.974;4.968;2023-05-29T14:01:45;21.20;99.90
9975;DHT22;5028;50.974;4.968;2023-05-29T14:04:15;21.30;99.90
9975;DHT22;5028;50.974;4.968;2023-05-29T14:06:43;21.10;99.90
9975;DHT22;5028;50.974;4.968;2023-05-29T14:09:12;20.90;99.90
9975;DHT22;5028;50.974;4.968;2023-05-29T14:11:43;21.00;99.90
9975;DHT22;5028;50.974;4.968;2023-05-29T14:14:13;20.90;99.90
9975;DHT22;5028;50.974;4.968;2023-05-29T14:16:42;21.00;99.90
9975;DHT22;5028;50.974;4.968;2023-05-29T14:19:12;21.00;99.90
9975;DHT22;5028;50.974;4.968;2023-05-29T14:21:42;21.00;99.90
9975;DHT22;5028;50.974;4.968;2023-05-29T14:24:11;20.90;99.90
9975;DHT22;5028;50.974;4.968;2023-05-29T14:26:40;20.90;99.90
9975;DHT22;5028;50.974;4.968;2023-05-29T14:29:13;20.60;99.90
9975;DHT22;5028;50.974;4.968;2023-05-29T14:31:43;20.50;99.90
9975;DHT22;5028;50.974;4.968;2023-05-29T14:34:12;20.70;99.90
9975;DHT22;5028;50.974;4.968;2023-05-29T14:36:41;20.70;99.90
9975;DHT22;5028;50.974;4.968;2023-05-29T14:39:12;20.50;99.90
9975;DHT22;5028;50.974;4.968;2023-05-29T14:41:41;20.40;99.90
9975;DHT22;5028;50.974;4.968;2023-05-29T14:44:09;20.60;99.90
9975;DHT22;5028;50.974;4.968;2023-05-29T14:46:40;20.80;99.90
9975;DHT22;5028;50.974;4.968;2023-05-29T14:49:09;20.70;99.90
9975;DHT22;5028;50.974;4.968;2023-05-29T14:51:38;20.40;99.90
9975;DHT22;5028;50.974;4.968;2023-05-29T14:54:09;20.10;99.90
9975;DHT22;5028;50.974;4.968;2023-05-29T14:56:39;20.20;99.90
9975;DHT22;5028;50.974;4.968;2023-05-29T14:59:07;20.40;99.90
9975;DHT22;5028;50.974;4.968;2023-05-29T15:01:36;20.50;99.90
9975;DHT22;5028;50.974;4.968;2023-05-29T15:04:06;20.20;99.90
9975;DHT22;5028;50.974;4.968;2023-05-29T15:06:35;20.10;99.90
9975;DHT22;5028;50.974;4.968;2023-05-29T15:09:04;19.90;99.90
9975;DHT22;5028;50.974;4.968;2023-05-29T15:11:33;20.00;99.90
9975;DHT22;5028;50.974;4.968;2023-05-29T15:14:02;20.10;99.90
9975;DHT22;5028;50.974;4.968;2023-05-29T15:16:30;20.00;99.90
9975;DHT22;5028;50.974;4.968;2023-05-29T15:18:59;19.90;99.90
9975;DHT22;5028;50.974;4.968;2023-05-29T15:21:30;19.90;99.90
9975;DHT22;5028;50.974;4.968;2023-05-29T15:23:59;19.90;99.90
9975;DHT22;5028;50.974;4.968;2023-05-29T15:26:28;19.60;99.90
9975;DHT22;5028;50.974;4.968;2023-05-29T15:28:57;19.50;99.90
9975;DHT22;5028;50.974;4.968;2023-05-29T15:31:26;19.60;99.90
9975;DHT22;5028;50.974;4.968;2023-05-29T15:33:55;19.70;99.90
9975;DHT22;5028;50.974;4.968;2023-05-29T15:36:23;19.70;99.90
9975;DHT22;5028;50.974;4.968;2023-05-29T15:38:56;19.70;99.90
9975;DHT22;5028;50.974;4.968;2023-05-29T15:41:25;19.60;99.90
9975;DHT22;5028;50.974;4.968;2023-05-29T15:43:56;19.40;99.90
9975;DHT22;5028;50.974;4.968;2023-05-29T15:46:26;19.40;99.90
9975;DHT22;5028;50.974;4.968;2023-05-29T15:48:56;19.40;99.90
9975;DHT22;5028;50.974;4.968;2023-05-29T15:51:24;19.20;99.90
9975;DHT22;5028;50.974;4.968;2023-05-29T15:53:53;19.30;99.90
9975;DHT22;5028;50.974;4.968;2023-05-29T15:56:24;19.40;99.90
9975;DHT22;5028;50.974;4.968;2023-05-29T15:58:55;19.40;99.90
9975;DHT22;5028;50.974;4.968;2023-05-29T16:01:24;19.50;99.90
9975;DHT22;5028;50.974;4.968;2023-05-29T16:03:52;19.40;99.90
9975;DHT22;5028;50.974;4.968;2023-05-29T16:06:22;19.10;99.90
9975;DHT22;5028;50.974;4.968;2023-05-29T16:08:53;19.10;99.90
9975;DHT22;5028;50.974;4.968;2023-05-29T16:11:23;19.10;99.90
9975;DHT22;5028;50.974;4.968;2023-05-29T16:13:52;19.10;99.90
9975;DHT22;5028;50.974;4.968;2023-05-29T16:16:21;19.00;99.90
9975;DHT22;5028;50.974;4.968;2023-05-29T16:18:50;19.00;99.90
9975;DHT22;5028;50.974;4.968;2023-05-29T16:21:18;18.90;99.90